Middletown, Pennsylvania
Current Conditions -  °F | °C
As of 8:56 PM on Friday 24 Oct 2014 (Local Time) from KMDT Reporting Station
Broken Clouds Broken Clouds  
Wind Chill: 56°   Ceiling: 22000
Heat Index: 56°   Visibility: 10mi
Dew Point: 39°   Wind: 12mph
Humidity: 53%   Direction: 300°WNW
Pressure: 29.91"   Gusts: NA
Location:  40.2°N, 76.73°W
Report Text: KMDT 250056Z 30010KT 10SM BKN220 13/04 A2991 RMK AO2 SLP128 T01330039
Loading
Personal Weather Stations






























Interactive Weather Map
Tropical Storm Tracking
New forecast layout! Learn more

10-Day Weather Forecast

Advertisements
Track Severe Weather on mobile